createdAt,value
2023-05-04T00:02:19.139Z,83.50
2023-05-04T00:04:47.702Z,85.60
2023-05-04T00:07:16.293Z,86.10
2023-05-04T00:09:46.182Z,85.50
2023-05-04T00:12:14.600Z,85.90
2023-05-04T00:14:42.985Z,84.90
2023-05-04T00:17:12.726Z,86.00
2023-05-04T00:19:42.356Z,86.50
2023-05-04T00:22:10.943Z,85.00
2023-05-04T00:27:25.579Z,86.70
2023-05-04T00:29:54.363Z,87.10
2023-05-04T00:32:22.752Z,86.40
2023-05-04T00:34:51.216Z,86.30
2023-05-04T00:37:19.597Z,87.60
2023-05-04T00:39:47.968Z,87.60
2023-05-04T00:42:16.413Z,87.60
2023-05-04T00:44:46.702Z,87.40
2023-05-04T00:47:16.973Z,87.90
2023-05-04T00:49:45.538Z,87.40
2023-05-04T00:52:15.666Z,87.60
2023-05-04T00:54:47.716Z,88.60
2023-05-04T00:57:18.272Z,88.20
2023-05-04T00:59:48.445Z,88.70
2023-05-04T01:02:16.955Z,87.40
2023-05-04T01:04:45.984Z,86.60
2023-05-04T01:07:23.881Z,88.30
2023-05-04T01:10:01.166Z,89.20
2023-05-04T01:12:37.530Z,88.90
2023-05-04T01:15:09.867Z,89.50
2023-05-04T01:17:38.750Z,89.60
2023-05-04T01:20:10.368Z,89.20
2023-05-04T01:22:40.595Z,89.60
2023-05-04T01:25:10.692Z,89.20
2023-05-04T01:27:48.135Z,89.40
2023-05-04T01:30:21.757Z,89.90
2023-05-04T01:32:51.580Z,89.70
2023-05-04T01:35:20.428Z,89.70
2023-05-04T01:37:50.160Z,90.10
2023-05-04T01:40:19.867Z,90.10
2023-05-04T01:42:48.288Z,88.90
2023-05-04T01:45:16.700Z,88.80
2023-05-04T01:47:46.404Z,88.90
2023-05-04T01:50:14.808Z,89.50
2023-05-04T01:52:43.219Z,89.50
2023-05-04T01:55:14.077Z,89.70
2023-05-04T01:57:42.479Z,89.50
2023-05-04T02:00:12.475Z,89.70
2023-05-04T02:02:44.051Z,90.10
2023-05-04T02:05:16.718Z,90.00
2023-05-04T02:07:45.162Z,90.00
2023-05-04T02:10:15.109Z,90.00
2023-05-04T02:12:43.957Z,89.90
2023-05-04T02:15:13.002Z,90.30
2023-05-04T02:17:41.589Z,90.00
2023-05-04T02:20:13.111Z,90.00
2023-05-04T02:22:44.136Z,90.10
2023-05-04T02:25:13.878Z,89.70
2023-05-04T02:27:42.491Z,89.90
2023-05-04T02:30:12.450Z,89.90
2023-05-04T02:32:41.174Z,90.40
2023-05-04T02:35:09.997Z,90.20
2023-05-04T02:37:38.317Z,90.30
2023-05-04T02:40:08.528Z,90.30
2023-05-04T02:42:38.277Z,90.50
2023-05-04T02:45:08.650Z,90.40
2023-05-04T02:47:37.085Z,90.60
2023-05-04T02:50:07.233Z,90.30
2023-05-04T02:52:35.941Z,90.60
2023-05-04T02:55:05.250Z,90.00
2023-05-04T02:57:33.587Z,90.50
2023-05-04T03:00:04.571Z,90.50
2023-05-04T03:02:33.192Z,90.70
2023-05-04T03:05:01.612Z,90.60
2023-05-04T03:07:30.062Z,90.60
2023-05-04T03:09:58.447Z,90.50
2023-05-04T03:12:26.845Z,90.60
2023-05-04T03:14:55.227Z,90.60
2023-05-04T03:17:25.063Z,90.60
2023-05-04T03:19:53.459Z,90.90
2023-05-04T03:22:21.910Z,90.70
2023-05-04T03:24:50.400Z,90.40
2023-05-04T03:27:19.688Z,90.70
2023-05-04T03:29:48.070Z,90.70
2023-05-04T03:32:16.931Z,90.70
2023-05-04T03:34:46.865Z,90.60
2023-05-04T03:37:16.979Z,90.90
2023-05-04T03:39:45.542Z,90.80
2023-05-04T03:42:13.912Z,90.70
2023-05-04T03:44:42.307Z,91.00
2023-05-04T03:47:10.915Z,91.00
2023-05-04T03:49:39.267Z,90.90
2023-05-04T03:52:09.192Z,90.70
2023-05-04T03:54:39.197Z,91.00
2023-05-04T03:57:07.567Z,91.00
2023-05-04T03:59:37.652Z,90.90
2023-05-04T04:02:07.996Z,91.10
2023-05-04T04:04:37.247Z,91.10
2023-05-04T04:07:05.703Z,91.20
2023-05-04T04:09:35.575Z,91.00
2023-05-04T04:12:04.043Z,91.00
2023-05-04T04:14:32.367Z,91.30
2023-05-04T04:17:00.744Z,91.30
2023-05-04T04:19:29.152Z,91.40
2023-05-04T04:21:59.036Z,91.40
2023-05-04T04:24:27.449Z,91.40
2023-05-04T04:26:57.585Z,91.30
2023-05-04T04:29:26.150Z,91.30
2023-05-04T04:31:54.669Z,91.60
2023-05-04T04:34:23.843Z,91.70
2023-05-04T04:36:52.485Z,91.90
2023-05-04T04:39:20.830Z,91.80
2023-05-04T04:41:49.318Z,91.70
2023-05-04T04:44:19.892Z,91.80
2023-05-04T04:46:48.584Z,91.90
2023-05-04T04:49:18.025Z,92.00
2023-05-04T04:51:48.834Z,92.00
2023-05-04T04:54:17.247Z,92.10
2023-05-04T04:56:46.178Z,92.10
2023-05-04T04:59:15.024Z,91.80
2023-05-04T05:01:44.754Z,91.90
2023-05-04T05:04:13.237Z,91.90
2023-05-04T05:06:41.881Z,92.00
2023-05-04T05:09:10.631Z,92.20
2023-05-04T05:11:38.964Z,92.50
2023-05-04T05:14:07.552Z,92.40
2023-05-04T05:16:35.993Z,92.20
2023-05-04T05:19:05.929Z,92.00
2023-05-04T05:21:34.313Z,91.60
2023-05-04T05:24:02.920Z,92.10
2023-05-04T05:26:31.302Z,92.00
2023-05-04T05:28:59.744Z,92.30
2023-05-04T05:31:28.414Z,91.90
2023-05-04T05:33:56.918Z,91.80
2023-05-04T05:36:27.260Z,92.10
2023-05-04T05:38:55.629Z,92.50
2023-05-04T05:41:24.085Z,92.60
2023-05-04T05:43:52.437Z,92.90
2023-05-04T05:46:20.834Z,92.60
2023-05-04T05:48:49.216Z,92.50
2023-05-04T05:51:17.594Z,92.50
2023-05-04T05:53:47.303Z,92.30
2023-05-04T05:56:15.682Z,92.70
2023-05-04T05:58:44.031Z,92.30
2023-05-04T06:01:13.324Z,92.50
2023-05-04T06:03:42.398Z,92.10
2023-05-04T06:06:11.457Z,92.70
2023-05-04T06:08:39.833Z,92.70
2023-05-04T06:11:09.554Z,92.50
2023-05-04T06:13:37.879Z,92.50
2023-05-04T06:16:06.777Z,92.40
2023-05-04T06:18:35.135Z,92.80
2023-05-04T06:21:04.106Z,93.20
2023-05-04T06:23:33.032Z,93.10
2023-05-04T06:26:01.475Z,92.90
2023-05-04T06:28:31.200Z,92.60
2023-05-04T06:30:59.678Z,92.80
2023-05-04T06:33:28.142Z,92.30
2023-05-04T06:35:56.634Z,92.10
2023-05-04T06:38:25.174Z,92.60
2023-05-04T06:40:53.586Z,92.10
2023-05-04T06:43:21.994Z,92.30
2023-05-04T06:45:51.746Z,92.70
2023-05-04T06:48:20.123Z,92.60
2023-05-04T06:50:48.551Z,92.40
2023-05-04T06:53:16.902Z,92.60
2023-05-04T06:55:45.698Z,92.50
2023-05-04T06:58:14.151Z,92.90
2023-05-04T07:00:43.415Z,91.80
2023-05-04T07:03:13.179Z,92.50
2023-05-04T07:05:42.551Z,92.00
2023-05-04T07:08:11.018Z,92.50
2023-05-04T07:10:39.590Z,92.50
2023-05-04T07:13:08.266Z,92.90
2023-05-04T07:15:36.917Z,92.70
2023-05-04T07:18:05.416Z,91.50
2023-05-04T07:20:35.254Z,92.70
2023-05-04T07:23:04.000Z,92.70
2023-05-04T07:25:32.968Z,92.80
2023-05-04T07:28:05.258Z,92.90
2023-05-04T07:30:33.581Z,93.40
2023-05-04T07:33:02.185Z,93.20
2023-05-04T07:35:30.598Z,92.10
2023-05-04T07:38:00.288Z,93.00
2023-05-04T07:40:28.740Z,93.00
2023-05-04T07:42:57.129Z,92.50
2023-05-04T07:45:25.546Z,93.20
2023-05-04T07:47:53.924Z,92.60
2023-05-04T07:50:22.366Z,92.80
2023-05-04T07:52:52.301Z,92.60
2023-05-04T07:55:22.553Z,92.70
2023-05-04T07:57:50.974Z,92.50
2023-05-04T08:00:21.503Z,92.50
2023-05-04T08:02:50.305Z,92.90
2023-05-04T08:05:18.954Z,92.40
2023-05-04T08:07:47.367Z,92.50
2023-05-04T08:10:15.797Z,92.60
2023-05-04T08:12:45.693Z,92.50
2023-05-04T08:15:14.722Z,92.50
2023-05-04T08:17:43.140Z,92.40
2023-05-04T08:20:13.030Z,92.20
2023-05-04T08:22:41.416Z,92.30
2023-05-04T08:25:11.222Z,92.10
2023-05-04T08:27:40.304Z,92.10
2023-05-04T08:30:11.514Z,92.20
2023-05-04T08:32:40.044Z,91.80
2023-05-04T08:35:08.989Z,91.80
2023-05-04T08:37:37.386Z,91.90
2023-05-04T08:40:07.099Z,91.80
2023-05-04T08:42:35.715Z,91.80
2023-05-04T08:45:04.227Z,91.50
2023-05-04T08:47:34.382Z,91.20
2023-05-04T08:50:02.884Z,91.20
2023-05-04T08:52:32.233Z,91.00
2023-05-04T08:55:01.051Z,91.10
2023-05-04T08:57:29.810Z,91.00
2023-05-04T08:59:58.738Z,90.70
2023-05-04T09:02:28.433Z,90.40
2023-05-04T09:04:58.330Z,90.40
2023-05-04T09:07:26.851Z,90.00
2023-05-04T09:09:57.091Z,90.20
2023-05-04T09:12:28.499Z,90.00
2023-05-04T09:14:57.000Z,89.90
2023-05-04T09:17:27.861Z,89.30
2023-05-04T09:20:04.083Z,88.40
2023-05-04T09:22:33.503Z,87.00
2023-05-04T09:25:11.413Z,88.50
2023-05-04T09:27:42.751Z,88.30
2023-05-04T09:30:13.868Z,88.20
2023-05-04T09:32:47.445Z,88.60
2023-05-04T09:35:31.920Z,87.70
2023-05-04T09:38:01.516Z,86.90
2023-05-04T09:40:33.700Z,86.30
2023-05-04T09:43:02.692Z,86.70
2023-05-04T09:45:41.233Z,85.80
2023-05-04T09:48:21.112Z,85.10
2023-05-04T09:50:53.819Z,85.10
2023-05-04T09:53:25.073Z,84.80
2023-05-04T09:56:08.163Z,83.10
2023-05-04T09:58:37.294Z,83.80
2023-05-04T10:01:07.017Z,84.40
2023-05-04T10:03:36.318Z,83.00
2023-05-04T10:06:09.199Z,83.00
2023-05-04T10:08:38.759Z,81.20
2023-05-04T10:11:07.878Z,82.40
2023-05-04T10:13:36.401Z,81.70
2023-05-04T10:16:24.310Z,80.20
2023-05-04T10:19:42.547Z,79.60
2023-05-04T10:22:37.636Z,81.70
2023-05-04T10:25:45.629Z,80.90
2023-05-04T10:28:32.765Z,80.30
2023-05-04T10:31:01.342Z,79.70
2023-05-04T10:33:39.898Z,80.20
2023-05-04T10:36:09.499Z,79.40
2023-05-04T10:38:41.378Z,79.10
2023-05-04T10:41:17.000Z,79.50
2023-05-04T10:43:49.005Z,78.40
2023-05-04T10:46:19.585Z,78.80
2023-05-04T10:48:48.059Z,79.20
2023-05-04T10:51:20.854Z,79.10
2023-05-04T10:53:51.276Z,77.70
2023-05-04T10:56:24.467Z,78.30
2023-05-04T10:58:53.810Z,76.90
2023-05-04T11:01:23.103Z,77.70
2023-05-04T11:03:53.290Z,77.90
2023-05-04T11:06:24.553Z,77.30
2023-05-04T11:09:06.342Z,75.80
2023-05-04T11:11:38.255Z,75.60
2023-05-04T11:14:10.794Z,75.80
2023-05-04T11:16:39.288Z,75.50
2023-05-04T11:19:12.591Z,75.20
2023-05-04T11:21:42.266Z,73.90
2023-05-04T11:24:12.806Z,73.70
2023-05-04T11:26:49.319Z,74.00
2023-05-04T11:29:19.164Z,74.00
2023-05-04T11:31:55.870Z,72.10
2023-05-04T11:35:17.708Z,73.70
2023-05-04T11:37:49.743Z,74.60
2023-05-04T11:40:29.590Z,73.00
2023-05-04T11:43:01.977Z,72.50
2023-05-04T11:45:32.491Z,72.60
2023-05-04T11:48:01.991Z,72.20
2023-05-04T11:50:31.542Z,72.10
2023-05-04T11:53:08.975Z,72.00
2023-05-04T11:55:39.170Z,70.80
2023-05-04T11:58:09.559Z,71.50
2023-05-04T12:00:40.151Z,71.30
2023-05-04T12:03:12.939Z,70.40
2023-05-04T12:05:48.189Z,70.10
2023-05-04T12:08:27.507Z,69.10
2023-05-04T12:11:14.799Z,69.30
2023-05-04T12:13:45.817Z,70.60
2023-05-04T12:16:16.579Z,70.90
2023-05-04T12:18:47.453Z,69.70
2023-05-04T12:21:20.284Z,70.00
2023-05-04T12:23:49.158Z,70.10
2023-05-04T12:26:19.801Z,68.60
2023-05-04T12:28:48.964Z,69.00
2023-05-04T12:31:18.911Z,68.60
2023-05-04T12:33:47.298Z,69.10
2023-05-04T12:36:15.777Z,68.90
2023-05-04T12:38:44.145Z,68.70
2023-05-04T12:41:12.697Z,68.20
2023-05-04T12:43:43.008Z,67.70
2023-05-04T12:46:11.887Z,67.60
2023-05-04T12:48:40.379Z,67.50
2023-05-04T12:51:08.774Z,67.30
2023-05-04T12:53:37.117Z,67.00
2023-05-04T12:56:06.933Z,66.60
2023-05-04T12:58:35.269Z,66.30
2023-05-04T13:01:05.270Z,66.50
2023-05-04T13:03:34.088Z,65.90
2023-05-04T13:06:02.571Z,66.70
2023-05-04T13:08:31.120Z,65.90
2023-05-04T13:10:59.461Z,66.90
2023-05-04T13:13:29.602Z,65.90
2023-05-04T13:15:58.425Z,65.80
2023-05-04T13:18:29.442Z,66.10
2023-05-04T13:20:58.089Z,65.90
2023-05-04T13:23:26.509Z,66.20
2023-05-04T13:25:55.611Z,65.50
2023-05-04T13:28:24.079Z,64.80
2023-05-04T13:30:53.126Z,65.00
2023-05-04T13:33:29.419Z,66.60
2023-05-04T13:36:03.572Z,63.90
2023-05-04T13:38:32.274Z,63.60
2023-05-04T13:41:00.606Z,63.90
2023-05-04T13:47:18.871Z,63.60
2023-05-04T13:49:49.069Z,65.00
2023-05-04T13:52:18.822Z,62.80
2023-05-04T13:54:47.253Z,61.20
2023-05-04T13:57:15.659Z,62.60
2023-05-04T13:59:51.598Z,62.80
2023-05-04T14:02:39.221Z,62.30
2023-05-04T14:05:08.688Z,63.00
2023-05-04T14:07:38.913Z,63.60
2023-05-04T14:10:08.872Z,61.80
2023-05-04T14:12:37.312Z,62.70
2023-05-04T14:15:07.147Z,62.00
2023-05-04T14:17:35.797Z,62.90
2023-05-04T14:20:05.908Z,61.30
2023-05-04T14:22:37.268Z,61.10
2023-05-04T14:25:09.379Z,59.70
2023-05-04T14:27:37.930Z,60.60
2023-05-04T14:30:09.505Z,60.20
2023-05-04T14:32:38.047Z,61.30
2023-05-04T14:35:10.193Z,60.20
2023-05-04T14:37:40.634Z,60.40
2023-05-04T14:40:11.578Z,60.40
2023-05-04T14:42:40.418Z,61.20
2023-05-04T14:45:10.716Z,61.20
2023-05-04T14:47:39.407Z,60.60
2023-05-04T14:50:09.232Z,61.10
2023-05-04T14:52:38.024Z,60.70
2023-05-04T14:55:07.572Z,60.90
2023-05-04T14:57:37.474Z,60.00
2023-05-04T15:00:09.344Z,58.40
2023-05-04T15:02:39.235Z,59.70
2023-05-04T15:05:10.373Z,59.10
2023-05-04T15:07:38.876Z,59.40
2023-05-04T15:10:10.162Z,59.00
2023-05-04T15:12:40.605Z,59.10
2023-05-04T15:15:10.384Z,57.90
2023-05-04T15:17:38.833Z,59.40
2023-05-04T15:20:09.977Z,58.80
2023-05-04T15:22:38.610Z,59.40
2023-05-04T15:25:07.931Z,58.40
2023-05-04T15:27:36.607Z,58.60
2023-05-04T15:30:09.002Z,58.20
2023-05-04T15:32:37.605Z,58.00
2023-05-04T15:35:07.711Z,58.80
2023-05-04T15:37:36.104Z,59.20
2023-05-04T15:40:06.219Z,58.70
2023-05-04T15:42:34.781Z,58.70
2023-05-04T15:45:03.241Z,57.90
2023-05-04T15:47:33.333Z,58.10
2023-05-04T15:50:01.704Z,58.00
2023-05-04T15:52:30.107Z,57.60
2023-05-04T15:55:04.251Z,57.50
2023-05-04T15:57:41.199Z,58.70
2023-05-04T16:00:10.855Z,58.70
2023-05-04T16:02:40.739Z,58.00
2023-05-04T16:05:10.308Z,57.10
2023-05-04T16:07:38.729Z,57.50
2023-05-04T16:10:09.210Z,57.50
2023-05-04T16:12:39.548Z,58.50
2023-05-04T16:15:08.841Z,58.60
2023-05-04T16:17:37.283Z,57.70
2023-05-04T16:20:09.971Z,58.20
2023-05-04T16:22:38.868Z,58.50
2023-05-04T16:25:10.303Z,56.80
2023-05-04T16:27:39.894Z,58.30
2023-05-04T16:30:10.287Z,57.90
2023-05-04T16:32:38.947Z,57.70
2023-05-04T16:35:10.131Z,57.50
2023-05-04T16:37:39.549Z,57.80
2023-05-04T16:40:14.651Z,58.10
2023-05-04T16:42:43.176Z,56.80
2023-05-04T16:45:13.567Z,56.70
2023-05-04T16:47:42.371Z,57.00
2023-05-04T16:50:14.318Z,56.60
2023-05-04T16:52:43.163Z,56.80
2023-05-04T16:55:12.673Z,56.90
2023-05-04T16:57:41.323Z,56.90
2023-05-04T17:00:13.244Z,57.10
2023-05-04T17:02:41.664Z,57.50
2023-05-04T17:05:12.030Z,57.50
2023-05-04T17:07:43.306Z,57.70
2023-05-04T17:10:12.295Z,57.70
2023-05-04T17:12:40.835Z,57.50
2023-05-04T17:15:11.243Z,57.90
2023-05-04T17:17:39.686Z,57.40
2023-05-04T17:20:14.903Z,56.40
2023-05-04T17:22:44.160Z,56.70
2023-05-04T17:25:13.344Z,57.70
2023-05-04T17:27:43.815Z,57.30
2023-05-04T17:30:14.025Z,56.20
2023-05-04T17:32:42.499Z,57.00
2023-05-04T17:35:24.454Z,56.80
2023-05-04T17:37:58.057Z,57.40
2023-05-04T17:40:27.791Z,57.00
2023-05-04T17:42:56.823Z,56.80
2023-05-04T17:45:25.624Z,57.40
2023-05-04T17:47:54.244Z,57.10
2023-05-04T17:50:24.646Z,56.90
2023-05-04T17:52:54.264Z,57.50
2023-05-04T17:55:24.762Z,57.70
2023-05-04T17:57:53.623Z,57.40
2023-05-04T18:00:22.800Z,58.20
2023-05-04T18:02:51.306Z,57.90
2023-05-04T18:05:20.029Z,58.00
2023-05-04T18:07:49.856Z,58.00
2023-05-04T18:10:18.356Z,57.40
2023-05-04T18:12:46.905Z,58.20
2023-05-04T18:15:16.489Z,57.20
2023-05-04T18:17:45.062Z,58.30
2023-05-04T18:20:13.774Z,59.20
2023-05-04T18:22:42.225Z,59.40
2023-05-04T18:25:12.194Z,59.10
2023-05-04T18:27:40.820Z,59.40
2023-05-04T18:30:11.277Z,59.40
2023-05-04T18:32:39.713Z,60.20
2023-05-04T18:35:09.238Z,59.60
2023-05-04T18:37:37.595Z,61.00
2023-05-04T18:40:08.193Z,61.30
2023-05-04T18:42:38.117Z,61.90
2023-05-04T18:45:08.105Z,61.10
2023-05-04T18:47:36.937Z,62.30
2023-05-04T18:50:06.283Z,62.10
2023-05-04T18:52:35.029Z,62.60
2023-05-04T18:55:03.411Z,63.00
2023-05-04T18:57:31.729Z,63.30
2023-05-04T19:00:01.443Z,63.30
2023-05-04T19:02:31.594Z,63.30
2023-05-04T19:05:00.153Z,62.10
2023-05-04T19:07:28.516Z,62.60
2023-05-04T19:09:56.877Z,63.30
2023-05-04T19:12:25.361Z,63.60
2023-05-04T19:14:54.616Z,63.90
2023-05-04T19:17:24.478Z,64.20
2023-05-04T19:19:52.928Z,64.50
2023-05-04T19:22:21.282Z,64.50
2023-05-04T19:24:52.369Z,64.90
2023-05-04T19:27:20.786Z,65.30
2023-05-04T19:29:49.176Z,65.20
2023-05-04T19:32:24.197Z,65.40
2023-05-04T19:34:54.828Z,65.60
2023-05-04T19:37:23.196Z,65.90
2023-05-04T19:39:51.729Z,65.90
2023-05-04T19:42:20.165Z,66.00
2023-05-04T19:44:48.573Z,66.10
2023-05-04T19:47:17.018Z,66.90
2023-05-04T19:49:47.729Z,67.20
2023-05-04T19:52:17.555Z,67.40
2023-05-04T19:54:48.454Z,67.40
2023-05-04T19:57:16.949Z,67.20
2023-05-04T19:59:47.077Z,67.30
2023-05-04T20:02:15.933Z,67.50
2023-05-04T20:04:44.370Z,67.70
2023-05-04T20:07:12.767Z,67.80
2023-05-04T20:09:42.494Z,68.20
2023-05-04T20:12:11.331Z,68.70
2023-05-04T20:14:41.197Z,67.70
2023-05-04T20:17:09.708Z,68.60
2023-05-04T20:19:40.707Z,68.70
2023-05-04T20:22:09.420Z,68.40
2023-05-04T20:24:37.821Z,69.30
2023-05-04T20:27:08.218Z,69.50
2023-05-04T20:29:36.640Z,70.50
2023-05-04T20:32:05.658Z,69.40
2023-05-04T20:34:34.341Z,69.90
2023-05-04T20:37:02.705Z,70.40
2023-05-04T20:39:31.155Z,70.50
2023-05-04T20:41:59.571Z,70.00
2023-05-04T20:44:29.378Z,70.00
2023-05-04T20:46:57.849Z,70.90
2023-05-04T20:49:26.338Z,70.20
2023-05-04T20:51:55.365Z,70.90
2023-05-04T20:54:24.206Z,72.00
2023-05-04T20:56:52.660Z,71.70
2023-05-04T20:59:21.084Z,71.70
2023-05-04T21:01:50.952Z,71.70
2023-05-04T21:04:19.445Z,73.20
2023-05-04T21:06:48.507Z,72.70
2023-05-04T21:09:17.145Z,72.10
2023-05-04T21:11:45.525Z,72.70
2023-05-04T21:14:13.859Z,72.40
2023-05-04T21:16:42.219Z,72.90
2023-05-04T21:19:11.933Z,72.90
2023-05-04T21:21:41.353Z,73.80
2023-05-04T21:24:13.324Z,73.40
2023-05-04T21:26:42.364Z,74.30
2023-05-04T21:29:14.039Z,73.20
2023-05-04T21:31:42.874Z,74.90
2023-05-04T21:34:12.659Z,74.30
2023-05-04T21:36:41.747Z,74.20
2023-05-04T21:39:10.109Z,73.70
2023-05-04T21:41:39.410Z,74.40
2023-05-04T21:44:07.905Z,75.20
2023-05-04T21:46:36.416Z,74.00
2023-05-04T21:49:04.924Z,73.50
2023-05-04T21:51:34.937Z,74.20
2023-05-04T21:54:03.365Z,74.80
2023-05-04T21:56:31.798Z,75.20
2023-05-04T21:59:00.216Z,74.20
2023-05-04T22:01:28.867Z,75.50
2023-05-04T22:03:57.395Z,75.70
2023-05-04T22:06:25.976Z,75.00
2023-05-04T22:08:55.666Z,76.50
2023-05-04T22:11:24.029Z,77.10
2023-05-04T22:13:53.079Z,76.50
2023-05-04T22:16:21.483Z,77.10
2023-05-04T22:18:50.677Z,76.80
2023-05-04T22:21:19.093Z,76.30
2023-05-04T22:23:47.538Z,77.20
2023-05-04T22:26:17.327Z,76.80
2023-05-04T22:28:45.771Z,77.60
2023-05-04T22:31:14.218Z,77.10
2023-05-04T22:33:42.643Z,76.40
2023-05-04T22:36:12.536Z,77.50
2023-05-04T22:38:40.918Z,77.80
2023-05-04T22:41:09.239Z,77.90
2023-05-04T22:43:38.946Z,78.30
2023-05-04T22:46:07.370Z,78.50
2023-05-04T22:48:35.749Z,78.60
2023-05-04T22:51:04.056Z,78.70
2023-05-04T22:53:32.537Z,78.80
2023-05-04T22:56:00.991Z,78.70
2023-05-04T22:58:29.405Z,78.80
2023-05-04T23:00:59.208Z,79.20
2023-05-04T23:03:27.746Z,79.20
2023-05-04T23:05:59.830Z,80.00
2023-05-04T23:08:28.203Z,80.10
2023-05-04T23:10:56.542Z,79.90
2023-05-04T23:13:25.525Z,80.40
2023-05-04T23:15:54.436Z,79.40
2023-05-04T23:18:24.310Z,79.30
2023-05-04T23:20:52.789Z,81.00
2023-05-04T23:23:21.161Z,80.20
2023-05-04T23:25:49.464Z,80.20
2023-05-04T23:28:17.823Z,81.20
2023-05-04T23:30:46.231Z,81.40
2023-05-04T23:33:14.648Z,80.30
2023-05-04T23:35:44.381Z,80.50
2023-05-04T23:38:12.827Z,81.90
2023-05-04T23:40:41.810Z,81.70
2023-05-04T23:43:10.103Z,81.50
2023-05-04T23:45:38.446Z,82.20
2023-05-04T23:48:07.309Z,82.60
2023-05-04T23:50:35.819Z,82.50
2023-05-04T23:53:05.509Z,82.50
2023-05-04T23:55:33.877Z,83.00
2023-05-04T23:58:02.583Z,82.70
